Time,TemperatureF,DewpointF,PressureIn,WindDirection,WindDirectionDegrees,WindSpeedMPH,WindSpeedGustMPH,Humidity,HourlyPrecipIn,Conditions,Clouds,dailyrainin,SoftwareType,DateUTC
2013-01-04 00:00:00,18.3,11.1,30.43,NNW,338,0.0,0.0,73,0.00,,---,0.02,VWS V14.01,2013-01-04 06:00:00,
2013-01-04 00:03:00,18.1,10.9,30.43,NNW,338,0.0,0.0,73,0.00,,---,0.00,VWS V14.01,2013-01-04 06:03:00,
2013-01-04 00:08:00,17.3,10.1,30.43,NNW,338,0.0,0.0,73,0.00,,---,0.00,VWS V14.01,2013-01-04 06:08:00,
2013-01-04 00:13:00,16.5,9.4,30.43,NNW,338,0.0,0.0,73,0.00,,---,0.00,VWS V14.01,2013-01-04 06:13:00,
2013-01-04 00:18:00,15.9,8.8,30.43,NNW,338,0.0,0.0,73,0.00,,---,0.00,VWS V14.01,2013-01-04 06:18:00,
2013-01-04 00:23:00,15.2,8.1,30.43,NNW,338,0.0,0.0,73,0.00,,---,0.00,VWS V14.01,2013-01-04 06:23:00,
2013-01-04 00:28:00,14.8,7.7,30.43,NNW,338,0.0,0.0,73,0.00,,---,0.00,VWS V14.01,2013-01-04 06:28:00,
2013-01-04 00:30:00,14.6,7.5,30.42,NNW,338,0.0,0.0,73,0.00,,---,0.00,VWS V14.01,2013-01-04 06:30:00,
2013-01-04 00:33:00,14.4,7.3,30.42,NNW,338,0.0,0.0,73,0.00,,---,0.00,VWS V14.01,2013-01-04 06:33:00,
2013-01-04 00:38:00,14.3,7.2,30.42,NNW,338,0.0,0.0,73,0.00,,---,0.00,VWS V14.01,2013-01-04 06:38:00,
2013-01-04 00:43:00,14.1,7.1,30.42,NNW,338,0.0,0.0,73,0.00,,---,0.00,VWS V14.01,2013-01-04 06:43:00,
2013-01-04 00:48:00,14.1,7.1,30.42,NNW,338,0.0,0.0,73,0.00,,---,0.00,VWS V14.01,2013-01-04 06:48:00,
2013-01-04 00:53:00,14.4,7.6,30.42,NNW,338,0.0,0.0,74,0.00,,---,0.00,VWS V14.01,2013-01-04 06:53:00,
2013-01-04 00:58:00,15.2,8.7,30.42,NNW,338,0.0,0.0,75,0.00,,---,0.00,VWS V14.01,2013-01-04 06:58:00,
2013-01-04 01:00:00,15.9,9.7,30.42,NNW,338,0.0,0.0,76,0.00,,---,0.00,VWS V14.01,2013-01-04 07:00:00,
2013-01-04 01:03:00,16.2,9.7,30.42,NNW,338,0.0,0.0,75,0.00,,---,0.00,VWS V14.01,2013-01-04 07:03:00,
2013-01-04 01:08:00,17.7,11.7,30.42,NNW,338,0.0,2.0,77,0.00,,---,0.00,VWS V14.01,2013-01-04 07:08:00,
2013-01-04 01:13:00,19.7,14.0,30.42,NNW,338,0.0,3.0,78,0.00,,---,0.00,VWS V14.01,2013-01-04 07:13:00,
2013-01-04 01:18:00,20.8,15.0,30.42,NNW,338,0.0,3.0,78,0.00,,---,0.00,VWS V14.01,2013-01-04 07:18:00,
2013-01-04 01:23:00,21.3,15.5,30.42,NNW,337,0.0,3.0,78,0.00,,---,0.00,VWS V14.01,2013-01-04 07:23:00,
2013-01-04 01:28:00,21.6,15.8,30.42,NNW,337,2.0,3.0,78,0.00,,---,0.00,VWS V14.01,2013-01-04 07:28:00,
2013-01-04 01:30:00,21.8,16.0,30.43,NNW,337,0.0,3.0,78,0.00,,---,0.00,VWS V14.01,2013-01-04 07:30:00,
2013-01-04 01:33:00,21.8,16.0,30.43,NNW,337,0.0,2.0,78,0.00,,---,0.00,VWS V14.01,2013-01-04 07:33:00,
2013-01-04 01:38:00,21.9,16.1,30.43,NNW,337,0.0,2.0,78,0.00,,---,0.00,VWS V14.01,2013-01-04 07:38:00,
2013-01-04 01:43:00,21.9,16.1,30.43,NNW,337,0.0,2.0,78,0.00,,---,0.00,VWS V14.01,2013-01-04 07:43:00,
2013-01-04 01:48:00,21.8,16.0,30.43,NNW,337,0.0,2.0,78,0.00,,---,0.00,VWS V14.01,2013-01-04 07:48:00,
2013-01-04 01:53:00,21.6,15.8,30.43,NNW,337,0.0,2.0,78,0.00,,---,0.00,VWS V14.01,2013-01-04 07:53:00,
2013-01-04 01:58:00,21.4,15.6,30.43,NNW,337,0.0,2.0,78,0.00,,---,0.00,VWS V14.01,2013-01-04 07:58:00,
2013-01-04 02:00:00,21.1,15.3,30.43,NNW,337,0.0,2.0,78,0.00,,---,0.00,VWS V14.01,2013-01-04 08:00:00,
2013-01-04 02:03:00,21.1,15.3,30.43,NNW,337,0.0,0.0,78,0.00,,---,0.00,VWS V14.01,2013-01-04 08:03:00,
2013-01-04 02:08:00,20.8,15.0,30.43,NNW,337,0.0,0.0,78,0.00,,---,0.00,VWS V14.01,2013-01-04 08:08:00,
2013-01-04 02:13:00,20.5,15.0,30.43,NNW,337,0.0,0.0,79,0.00,,---,0.00,VWS V14.01,2013-01-04 08:13:00,
2013-01-04 02:18:00,19.9,14.4,30.43,NNW,337,0.0,0.0,79,0.00,,---,0.00,VWS V14.01,2013-01-04 08:18:00,
2013-01-04 02:23:00,19.2,13.5,30.43,NNW,337,0.0,0.0,78,0.00,,---,0.00,VWS V14.01,2013-01-04 08:23:00,
2013-01-04 02:28:00,18.8,13.1,30.43,NNW,337,0.0,0.0,78,0.00,,---,0.00,VWS V14.01,2013-01-04 08:28:00,
2013-01-04 02:30:00,18.4,12.7,30.44,NNW,337,0.0,0.0,78,0.00,,---,0.00,VWS V14.01,2013-01-04 08:30:00,
2013-01-04 02:33:00,18.3,12.6,30.44,NNW,337,0.0,0.0,78,0.00,,---,0.00,VWS V14.01,2013-01-04 08:33:00,
2013-01-04 02:38:00,17.3,11.6,30.44,NNW,337,0.0,0.0,78,0.00,,---,0.00,VWS V14.01,2013-01-04 08:38:00,
2013-01-04 02:43:00,16.5,10.9,30.44,NNW,337,0.0,0.0,78,0.00,,---,0.00,VWS V14.01,2013-01-04 08:43:00,
2013-01-04 02:48:00,15.9,10.3,30.44,NNW,337,0.0,0.0,78,0.00,,---,0.00,VWS V14.01,2013-01-04 08:48:00,
2013-01-04 02:53:00,15.7,10.1,30.44,NNW,337,0.0,0.0,78,0.00,,---,0.00,VWS V14.01,2013-01-04 08:53:00,
2013-01-04 02:58:00,15.9,10.6,30.44,NNW,337,0.0,0.0,79,0.00,,---,0.00,VWS V14.01,2013-01-04 08:58:00,
2013-01-04 03:00:00,15.9,10.3,30.44,NNW,337,0.0,0.0,78,0.00,,---,0.00,VWS V14.01,2013-01-04 09:00:00,
2013-01-04 03:03:00,15.9,10.3,30.44,NNW,337,0.0,0.0,78,0.00,,---,0.00,VWS V14.01,2013-01-04 09:03:00,
2013-01-04 03:08:00,16.1,10.8,30.44,NNW,337,0.0,0.0,79,0.00,,---,0.00,VWS V14.01,2013-01-04 09:08:00,
2013-01-04 03:13:00,16.9,11.8,30.44,NNW,337,0.0,0.0,80,0.00,,---,0.00,VWS V14.01,2013-01-04 09:13:00,
2013-01-04 03:18:00,17.3,12.2,30.43,NNW,337,0.0,0.0,80,0.00,,---,0.00,VWS V14.01,2013-01-04 09:18:00,
2013-01-04 03:23:00,17.7,12.6,30.43,NNW,337,0.0,0.0,80,0.00,,---,0.00,VWS V14.01,2013-01-04 09:23:00,
2013-01-04 03:28:00,17.8,12.7,30.43,NNW,337,0.0,0.0,80,0.00,,---,0.00,VWS V14.01,2013-01-04 09:28:00,
2013-01-04 03:30:00,17.8,12.7,30.43,NNW,337,0.0,0.0,80,0.00,,---,0.00,VWS V14.01,2013-01-04 09:30:00,
2013-01-04 03:33:00,17.8,12.7,30.43,NNW,337,0.0,0.0,80,0.00,,---,0.00,VWS V14.01,2013-01-04 09:33:00,
2013-01-04 03:38:00,17.5,12.4,30.43,NNW,337,0.0,0.0,80,0.00,,---,0.00,VWS V14.01,2013-01-04 09:38:00,
2013-01-04 03:43:00,17.0,11.9,30.43,NNW,337,0.0,0.0,80,0.00,,---,0.00,VWS V14.01,2013-01-04 09:43:00,
2013-01-04 03:48:00,16.9,11.8,30.42,NNW,337,0.0,0.0,80,0.00,,---,0.00,VWS V14.01,2013-01-04 09:48:00,
2013-01-04 03:53:00,16.9,11.8,30.42,NNW,337,0.0,0.0,80,0.00,,---,0.00,VWS V14.01,2013-01-04 09:53:00,
2013-01-04 03:58:00,17.0,11.9,30.42,NNW,337,0.0,0.0,80,0.00,,---,0.00,VWS V14.01,2013-01-04 09:58:00,
2013-01-04 04:00:00,17.3,12.5,30.42,NNW,337,0.0,0.0,81,0.00,,---,0.00,VWS V14.01,2013-01-04 10:00:00,
2013-01-04 04:03:00,17.3,12.5,30.42,NNW,337,0.0,0.0,81,0.00,,---,0.00,VWS V14.01,2013-01-04 10:03:00,
2013-01-04 04:08:00,17.5,12.7,30.42,NNW,337,0.0,0.0,81,0.00,,---,0.00,VWS V14.01,2013-01-04 10:08:00,
2013-01-04 04:13:00,18.1,13.3,30.42,NW,315,1.0,3.0,81,0.00,,---,0.00,VWS V14.01,2013-01-04 10:13:00,
2013-01-04 04:18:00,18.9,14.3,30.42,WNW,290,2.0,3.0,82,0.00,,---,0.00,VWS V14.01,2013-01-04 10:18:00,
2013-01-04 04:23:00,19.5,14.9,30.42,West,276,0.0,3.0,82,0.00,,---,0.00,VWS V14.01,2013-01-04 10:23:00,
2013-01-04 04:28:00,19.9,15.3,30.42,West,276,1.0,3.0,82,0.00,,---,0.00,VWS V14.01,2013-01-04 10:28:00,
2013-01-04 04:30:00,20.2,15.6,30.41,West,274,0.0,3.0,82,0.00,,---,0.00,VWS V14.01,2013-01-04 10:30:00,
2013-01-04 04:33:00,20.2,15.6,30.41,West,274,3.0,3.0,82,0.00,,---,0.00,VWS V14.01,2013-01-04 10:33:00,
2013-01-04 04:38:00,20.5,15.9,30.41,SSW,209,0.0,3.0,82,0.00,,---,0.00,VWS V14.01,2013-01-04 10:38:00,
2013-01-04 04:43:00,20.5,15.9,30.41,SSW,209,0.0,3.0,82,0.00,,---,0.00,VWS V14.01,2013-01-04 10:43:00,
2013-01-04 04:48:00,20.5,15.9,30.40,SSW,210,1.0,3.0,82,0.00,,---,0.00,VWS V14.01,2013-01-04 10:48:00,
2013-01-04 04:53:00,20.3,15.7,30.40,SW,223,0.0,3.0,82,0.00,,---,0.00,VWS V14.01,2013-01-04 10:53:00,
2013-01-04 04:58:00,20.3,15.7,30.40,SSW,198,1.0,3.0,82,0.00,,---,0.00,VWS V14.01,2013-01-04 10:58:00,
2013-01-04 05:00:00,20.3,15.7,30.40,SSW,212,1.0,3.0,82,0.00,,---,0.00,VWS V14.01,2013-01-04 11:00:00,
2013-01-04 05:03:00,20.3,15.7,30.40,WSW,256,1.0,4.0,82,0.00,,---,0.00,VWS V14.01,2013-01-04 11:03:00,
2013-01-04 05:10:00,20.3,15.7,30.40,WSW,244,0.0,0.0,82,0.00,,---,0.00,VWS V14.01,2013-01-04 11:10:00,
2013-01-04 05:15:00,20.5,16.2,30.40,WSW,242,1.0,4.0,83,0.00,,---,0.00,VWS V14.01,2013-01-04 11:15:00,
2013-01-04 05:20:00,20.5,16.2,30.40,WSW,242,0.0,4.0,83,0.00,,---,0.00,VWS V14.01,2013-01-04 11:20:00,
2013-01-04 05:25:00,20.5,16.2,30.40,WSW,245,3.0,4.0,83,0.00,,---,0.00,VWS V14.01,2013-01-04 11:25:00,
2013-01-04 05:30:00,20.5,16.2,30.40,WSW,245,0.0,4.0,83,0.00,,---,0.00,VWS V14.01,2013-01-04 11:30:00,
2013-01-04 05:35:00,20.3,16.0,30.40,WSW,245,0.0,2.0,83,0.00,,---,0.00,VWS V14.01,2013-01-04 11:35:00,
2013-01-04 05:40:00,20.3,16.0,30.40,WSW,245,0.0,2.0,83,0.00,,---,0.00,VWS V14.01,2013-01-04 11:40:00,
2013-01-04 05:45:00,20.2,15.9,30.40,WSW,246,0.0,2.0,83,0.00,,---,0.00,VWS V14.01,2013-01-04 11:45:00,
2013-01-04 05:50:00,20.0,15.7,30.40,WSW,246,0.0,2.0,83,0.00,,---,0.00,VWS V14.01,2013-01-04 11:50:00,
2013-01-04 05:55:00,19.9,15.6,30.40,WSW,246,0.0,2.0,83,0.00,,---,0.00,VWS V14.01,2013-01-04 11:55:00,
2013-01-04 06:00:00,19.9,15.6,30.40,WSW,246,0.0,2.0,83,0.00,,---,0.00,VWS V14.01,2013-01-04 12:00:00,
2013-01-04 06:05:00,19.7,15.4,30.40,WSW,246,0.0,0.0,83,0.00,,---,0.00,VWS V14.01,2013-01-04 12:05:00,
2013-01-04 06:10:00,19.5,15.2,30.40,WSW,246,0.0,0.0,83,0.00,,---,0.00,VWS V14.01,2013-01-04 12:10:00,
2013-01-04 06:15:00,19.4,15.1,30.40,WSW,246,0.0,0.0,83,0.00,,---,0.00,VWS V14.01,2013-01-04 12:15:00,
2013-01-04 06:20:00,19.4,15.1,30.41,WSW,246,0.0,0.0,83,0.00,,---,0.00,VWS V14.01,2013-01-04 12:20:00,
2013-01-04 06:25:00,19.2,14.9,30.41,WSW,246,0.0,0.0,83,0.00,,---,0.00,VWS V14.01,2013-01-04 12:25:00,
2013-01-04 06:30:00,19.1,14.8,30.41,WSW,246,0.0,0.0,83,0.00,,---,0.00,VWS V14.01,2013-01-04 12:30:00,
2013-01-04 06:35:00,19.1,14.8,30.41,WSW,246,0.0,0.0,83,0.00,,---,0.00,VWS V14.01,2013-01-04 12:35:00,
2013-01-04 06:40:00,18.9,14.6,30.41,WSW,246,0.0,0.0,83,0.00,,---,0.00,VWS V14.01,2013-01-04 12:40:00,
2013-01-04 06:45:00,18.9,14.6,30.41,WSW,246,0.0,0.0,83,0.00,,---,0.00,VWS V14.01,2013-01-04 12:45:00,
2013-01-04 06:50:00,18.8,14.5,30.41,WSW,246,0.0,0.0,83,0.00,,---,0.00,VWS V14.01,2013-01-04 12:50:00,
2013-01-04 06:55:00,18.6,14.3,30.41,WSW,246,0.0,0.0,83,0.00,,---,0.00,VWS V14.01,2013-01-04 12:55:00,
2013-01-04 07:00:00,18.6,14.3,30.41,WSW,246,0.0,0.0,83,0.00,,---,0.00,VWS V14.01,2013-01-04 13:00:00,
2013-01-04 07:05:00,18.4,14.1,30.41,WSW,246,0.0,0.0,83,0.00,,---,0.00,VWS V14.01,2013-01-04 13:05:00,
2013-01-04 07:10:00,18.1,13.8,30.41,WSW,246,0.0,0.0,83,0.00,,---,0.00,VWS V14.01,2013-01-04 13:10:00,
2013-01-04 07:15:00,17.7,13.4,30.41,WSW,246,0.0,0.0,83,0.00,,---,0.00,VWS V14.01,2013-01-04 13:15:00,
2013-01-04 07:20:00,17.2,12.9,30.41,WSW,246,0.0,0.0,83,0.00,,---,0.00,VWS V14.01,2013-01-04 13:20:00,
2013-01-04 07:25:00,16.5,12.2,30.41,WSW,246,0.0,0.0,83,0.00,,---,0.00,VWS V14.01,2013-01-04 13:25:00,
2013-01-04 07:30:00,16.1,11.9,30.41,WSW,246,0.0,0.0,83,0.00,,---,0.00,VWS V14.01,2013-01-04 13:30:00,
2013-01-04 07:35:00,15.4,11.2,30.41,WSW,246,0.0,0.0,83,0.00,,---,0.00,VWS V14.01,2013-01-04 13:35:00,
2013-01-04 07:40:00,15.7,11.5,30.41,WSW,246,0.0,0.0,83,0.00,,---,0.00,VWS V14.01,2013-01-04 13:40:00,
2013-01-04 07:45:00,16.5,12.5,30.41,WSW,246,0.0,0.0,84,0.00,,---,0.00,VWS V14.01,2013-01-04 13:45:00,
2013-01-04 07:50:00,17.0,13.0,30.41,WSW,246,0.0,0.0,84,0.00,,---,0.00,VWS V14.01,2013-01-04 13:50:00,
2013-01-04 07:55:00,17.3,13.3,30.41,WSW,246,0.0,0.0,84,0.00,,---,0.00,VWS V14.01,2013-01-04 13:55:00,
2013-01-04 08:00:00,18.0,14.0,30.41,SSW,201,0.0,2.0,84,0.00,,---,0.00,VWS V14.01,2013-01-04 14:00:00,
2013-01-04 08:05:00,18.8,15.1,30.41,WSW,255,0.0,4.0,85,0.00,,---,0.00,VWS V14.01,2013-01-04 14:05:00,
2013-01-04 08:10:00,19.4,15.6,30.41,SSW,209,0.0,4.0,85,0.00,,---,0.00,VWS V14.01,2013-01-04 14:10:00,
2013-01-04 08:15:00,20.0,16.2,30.41,WSW,257,2.0,4.0,85,0.00,,---,0.00,VWS V14.01,2013-01-04 14:15:00,
2013-01-04 08:20:00,20.5,16.7,30.40,SSW,208,3.0,4.0,85,0.00,,---,0.00,VWS V14.01,2013-01-04 14:20:00,
2013-01-04 08:25:00,21.0,17.2,30.40,WSW,246,0.0,4.0,85,0.00,,---,0.00,VWS V14.01,2013-01-04 14:25:00,
2013-01-04 08:30:00,21.3,17.5,30.40,WSW,246,3.0,5.0,85,0.00,,---,0.00,VWS V14.01,2013-01-04 14:30:00,
2013-01-04 08:35:00,21.6,17.8,30.40,WSW,244,2.0,4.0,85,0.00,,---,0.00,VWS V14.01,2013-01-04 14:35:00,
2013-01-04 08:40:00,21.8,18.0,30.40,SSW,207,1.0,5.0,85,0.00,,---,0.00,VWS V14.01,2013-01-04 14:40:00,
2013-01-04 08:45:00,21.9,18.1,30.40,WSW,248,2.0,5.0,85,0.00,,---,0.00,VWS V14.01,2013-01-04 14:45:00,
2013-01-04 08:50:00,22.2,18.4,30.41,South,180,5.0,7.0,85,0.00,,---,0.00,VWS V14.01,2013-01-04 14:50:00,
2013-01-04 08:55:00,22.5,18.7,30.41,SW,223,3.0,9.0,85,0.00,,---,0.00,VWS V14.01,2013-01-04 14:55:00,
2013-01-04 09:00:00,22.9,19.1,30.41,SW,232,3.0,9.0,85,0.00,,---,0.00,VWS V14.01,2013-01-04 15:00:00,
2013-01-04 09:05:00,23.2,19.4,30.41,SW,226,3.0,7.0,85,0.00,,---,0.00,VWS V14.01,2013-01-04 15:05:00,
2013-01-04 09:10:00,23.5,19.7,30.41,WSW,251,5.0,8.0,85,0.00,,---,0.00,VWS V14.01,2013-01-04 15:10:00,
2013-01-04 09:15:00,23.6,19.8,30.41,WSW,248,7.0,9.0,85,0.00,,---,0.00,VWS V14.01,2013-01-04 15:15:00,
2013-01-04 09:20:00,24.1,20.2,30.42,West,263,9.0,10.0,85,0.00,,---,0.00,VWS V14.01,2013-01-04 15:20:00,
2013-01-04 09:25:00,24.4,20.5,30.42,WSW,258,3.0,10.0,85,0.00,,---,0.00,VWS V14.01,2013-01-04 15:25:00,
2013-01-04 09:30:00,24.8,20.9,30.42,WSW,257,3.0,10.0,85,0.00,,---,0.00,VWS V14.01,2013-01-04 15:30:00,
2013-01-04 09:35:00,25.3,21.4,30.42,WSW,252,5.0,8.0,85,0.00,,---,0.00,VWS V14.01,2013-01-04 15:35:00,
2013-01-04 09:40:00,25.7,21.8,30.42,SW,228,4.0,8.0,85,0.00,,---,0.00,VWS V14.01,2013-01-04 15:40:00,
2013-01-04 09:45:00,26.0,22.1,30.42,West,260,4.0,8.0,85,0.00,,---,0.00,VWS V14.01,2013-01-04 15:45:00,
2013-01-04 09:50:00,26.4,22.5,30.41,West,264,3.0,8.0,85,0.00,,---,0.00,VWS V14.01,2013-01-04 15:50:00,
2013-01-04 09:55:00,26.9,22.7,30.41,West,275,5.0,8.0,84,0.00,,---,0.00,VWS V14.01,2013-01-04 15:55:00,
2013-01-04 10:00:00,27.3,23.1,30.41,WSW,244,3.0,10.0,84,0.00,,---,0.00,VWS V14.01,2013-01-04 16:00:00,
2013-01-04 10:05:00,27.8,23.6,30.41,West,281,3.0,7.0,84,0.00,,---,0.00,VWS V14.01,2013-01-04 16:05:00,
2013-01-04 10:10:00,28.2,23.7,30.41,West,279,5.0,7.0,83,0.00,,---,0.00,VWS V14.01,2013-01-04 16:10:00,
2013-01-04 10:15:00,28.7,24.2,30.41,West,267,5.0,8.0,83,0.00,,---,0.00,VWS V14.01,2013-01-04 16:15:00,
2013-01-04 10:20:00,29.1,24.6,30.41,WSW,250,7.0,8.0,83,0.00,,---,0.00,VWS V14.01,2013-01-04 16:20:00,
2013-01-04 10:25:00,29.5,24.7,30.41,SW,217,4.0,8.0,82,0.00,,---,0.00,VWS V14.01,2013-01-04 16:25:00,
2013-01-04 10:30:00,29.8,25.0,30.41,West,259,4.0,8.0,82,0.00,,---,0.00,VWS V14.01,2013-01-04 16:30:00,
2013-01-04 10:35:00,30.1,25.3,30.41,South,169,4.0,7.0,82,0.00,,---,0.00,VWS V14.01,2013-01-04 16:35:00,
2013-01-04 10:40:00,30.4,25.3,30.41,WSW,257,6.0,7.0,81,0.00,,---,0.00,VWS V14.01,2013-01-04 16:40:00,
2013-01-04 10:45:00,30.7,25.6,30.41,West,259,5.0,10.0,81,0.00,,---,0.00,VWS V14.01,2013-01-04 16:45:00,
2013-01-04 10:50:00,31.0,25.6,30.41,SSW,200,3.0,10.0,80,0.00,,---,0.00,VWS V14.01,2013-01-04 16:50:00,
2013-01-04 10:55:00,31.3,25.9,30.41,WSW,239,4.0,10.0,80,0.00,,---,0.00,VWS V14.01,2013-01-04 16:55:00,
2013-01-04 11:00:00,31.6,26.1,30.41,West,269,6.0,10.0,80,0.00,,---,0.00,VWS V14.01,2013-01-04 17:00:00,
2013-01-04 11:05:00,31.9,26.1,30.41,WSW,255,3.0,8.0,79,0.00,,---,0.00,VWS V14.01,2013-01-04 17:05:00,
2013-01-04 11:10:00,32.4,26.6,30.41,WSW,254,4.0,8.0,79,0.00,,---,0.00,VWS V14.01,2013-01-04 17:10:00,
2013-01-04 11:15:00,32.7,26.6,30.41,West,265,5.0,9.0,78,0.00,,---,0.00,VWS V14.01,2013-01-04 17:15:00,
2013-01-04 11:20:00,32.9,26.8,30.41,West,270,7.0,9.0,78,0.00,,---,0.00,VWS V14.01,2013-01-04 17:20:00,
2013-01-04 11:25:00,33.4,27.3,30.41,West,266,4.0,9.0,78,0.00,,---,0.00,VWS V14.01,2013-01-04 17:25:00,
2013-01-04 11:30:00,33.8,27.4,30.41,South,175,3.0,9.0,77,0.00,,---,0.00,VWS V14.01,2013-01-04 17:30:00,
2013-01-04 11:35:00,34.3,27.9,30.40,South,172,4.0,7.0,77,0.00,,---,0.00,VWS V14.01,2013-01-04 17:35:00,
2013-01-04 11:40:00,34.6,27.8,30.40,WSW,251,3.0,7.0,76,0.00,,---,0.00,VWS V14.01,2013-01-04 17:40:00,
2013-01-04 11:45:00,35.0,28.2,30.40,WSW,251,9.0,9.0,76,0.00,,---,0.00,VWS V14.01,2013-01-04 17:45:00,
2013-01-04 11:50:00,35.0,27.9,30.39,WSW,240,6.0,11.0,75,0.01,,---,0.01,VWS V14.01,2013-01-04 17:50:00,
2013-01-04 11:55:00,35.2,27.8,30.39,WSW,249,4.0,12.0,74,0.01,,---,0.01,VWS V14.01,2013-01-04 17:55:00,
2013-01-04 12:00:00,35.3,27.5,30.39,West,259,8.0,12.0,73,0.01,,---,0.01,VWS V14.01,2013-01-04 18:00:00,
2013-01-04 12:05:00,35.5,27.7,30.39,WSW,253,6.0,9.0,73,0.01,,---,0.01,VWS V14.01,2013-01-04 18:05:00,
2013-01-04 12:10:00,35.6,27.8,30.39,West,260,3.0,9.0,73,0.01,,---,0.01,VWS V14.01,2013-01-04 18:10:00,
2013-01-04 12:15:00,35.9,27.8,30.39,SW,216,4.0,9.0,72,0.01,,---,0.01,VWS V14.01,2013-01-04 18:15:00,
2013-01-04 12:20:00,36.0,27.9,30.38,WSW,247,9.0,9.0,72,0.01,,---,0.01,VWS V14.01,2013-01-04 18:20:00,
2013-01-04 12:25:00,36.0,27.5,30.38,West,267,5.0,9.0,71,0.01,,---,0.01,VWS V14.01,2013-01-04 18:25:00,
2013-01-04 12:30:00,36.3,27.8,30.38,WSW,240,2.0,9.0,71,0.01,,---,0.01,VWS V14.01,2013-01-04 18:30:00,
2013-01-04 12:35:00,36.5,28.0,30.37,West,268,8.0,10.0,71,0.01,,---,0.01,VWS V14.01,2013-01-04 18:35:00,
2013-01-04 12:40:00,36.5,27.7,30.37,SSW,210,5.0,10.0,70,0.01,,---,0.01,VWS V14.01,2013-01-04 18:40:00,
2013-01-04 12:45:00,36.5,27.7,30.37,West,260,9.0,11.0,70,0.01,,---,0.01,VWS V14.01,2013-01-04 18:45:00,
2013-01-04 12:50:00,36.3,27.5,30.36,West,273,5.0,11.0,70,0.01,,---,0.01,VWS V14.01,2013-01-04 18:50:00,
2013-01-04 12:55:00,36.3,27.1,30.36,South,186,5.0,11.0,69,0.01,,---,0.01,VWS V14.01,2013-01-04 18:55:00,
2013-01-04 13:00:00,36.3,27.1,30.36,West,265,7.0,11.0,69,0.01,,---,0.01,VWS V14.01,2013-01-04 19:00:00,
2013-01-04 13:05:00,36.5,27.3,30.35,WSW,257,6.0,8.0,69,0.00,,---,0.01,VWS V14.01,2013-01-04 19:05:00,
2013-01-04 13:10:00,36.8,27.6,30.35,WSW,252,5.0,8.0,69,0.00,,---,0.01,VWS V14.01,2013-01-04 19:10:00,
2013-01-04 13:15:00,36.9,27.7,30.35,SW,229,4.0,9.0,69,0.00,,---,0.01,VWS V14.01,2013-01-04 19:15:00,
2013-01-04 13:20:00,36.9,27.3,30.35,WSW,254,6.0,9.0,68,0.00,,---,0.01,VWS V14.01,2013-01-04 19:20:00,
2013-01-04 13:25:00,37.0,27.8,30.35,WSW,258,2.0,9.0,69,0.00,,---,0.01,VWS V14.01,2013-01-04 19:25:00,
2013-01-04 13:30:00,37.2,27.6,30.35,WNW,295,3.0,9.0,68,0.00,,---,0.01,VWS V14.01,2013-01-04 19:30:00,
2013-01-04 13:35:00,37.3,27.7,30.34,West,264,6.0,6.0,68,0.00,,---,0.01,VWS V14.01,2013-01-04 19:35:00,
2013-01-04 13:40:00,37.5,27.9,30.34,WSW,244,3.0,8.0,68,0.00,,---,0.01,VWS V14.01,2013-01-04 19:40:00,
2013-01-04 13:45:00,37.5,27.9,30.34,WSW,243,3.0,8.0,68,0.00,,---,0.01,VWS V14.01,2013-01-04 19:45:00,
2013-01-04 13:50:00,37.5,27.9,30.33,SW,215,4.0,8.0,68,0.00,,---,0.01,VWS V14.01,2013-01-04 19:50:00,
2013-01-04 13:55:00,37.8,28.2,30.33,WSW,250,5.0,9.0,68,0.00,,---,0.01,VWS V14.01,2013-01-04 19:55:00,
2013-01-04 14:00:00,37.9,27.9,30.33,WSW,237,3.0,9.0,67,0.00,,---,0.01,VWS V14.01,2013-01-04 20:00:00,
2013-01-04 14:05:00,37.9,27.9,30.33,West,271,5.0,8.0,67,0.00,,---,0.01,VWS V14.01,2013-01-04 20:05:00,
2013-01-04 14:10:00,37.9,27.9,30.33,SSE,155,3.0,10.0,67,0.00,,---,0.01,VWS V14.01,2013-01-04 20:10:00,
2013-01-04 14:15:00,38.2,28.2,30.33,SSW,203,2.0,10.0,67,0.00,,---,0.01,VWS V14.01,2013-01-04 20:15:00,
2013-01-04 14:20:00,38.2,28.2,30.32,South,173,3.0,10.0,67,0.00,,---,0.01,VWS V14.01,2013-01-04 20:20:00,
2013-01-04 14:25:00,38.3,28.3,30.32,West,281,2.0,10.0,67,0.00,,---,0.01,VWS V14.01,2013-01-04 20:25:00,
2013-01-04 14:30:00,38.6,28.2,30.32,West,275,5.0,10.0,66,0.00,,---,0.01,VWS V14.01,2013-01-04 20:30:00,
2013-01-04 14:35:00,38.6,28.2,30.32,West,270,5.0,10.0,66,0.00,,---,0.01,VWS V14.01,2013-01-04 20:35:00,
2013-01-04 14:40:00,38.6,28.2,30.32,West,271,5.0,10.0,66,0.00,,---,0.01,VWS V14.01,2013-01-04 20:40:00,
2013-01-04 14:45:00,38.9,28.5,30.32,South,184,3.0,10.0,66,0.00,,---,0.01,VWS V14.01,2013-01-04 20:45:00,
2013-01-04 14:50:00,39.1,28.7,30.32,West,263,4.0,10.0,66,0.00,,---,0.01,VWS V14.01,2013-01-04 20:50:00,
2013-01-04 14:55:00,39.2,28.4,30.32,West,265,4.0,10.0,65,0.00,,---,0.01,VWS V14.01,2013-01-04 20:55:00,
2013-01-04 15:00:00,39.3,28.5,30.32,West,267,6.0,10.0,65,0.00,,---,0.01,VWS V14.01,2013-01-04 21:00:00,
2013-01-04 15:05:00,39.3,28.5,30.32,SW,221,3.0,7.0,65,0.00,,---,0.01,VWS V14.01,2013-01-04 21:05:00,
2013-01-04 15:10:00,39.3,28.5,30.32,South,178,1.0,8.0,65,0.00,,---,0.01,VWS V14.01,2013-01-04 21:10:00,
2013-01-04 15:15:00,39.3,28.5,30.32,South,188,1.0,8.0,65,0.00,,---,0.01,VWS V14.01,2013-01-04 21:15:00,
2013-01-04 15:20:00,39.3,28.5,30.32,South,186,1.0,8.0,65,0.00,,---,0.01,VWS V14.01,2013-01-04 21:20:00,
2013-01-04 15:25:00,39.3,28.5,30.32,WNW,288,3.0,8.0,65,0.00,,---,0.01,VWS V14.01,2013-01-04 21:25:00,
2013-01-04 15:30:00,39.3,28.2,30.32,SW,226,2.0,8.0,64,0.00,,---,0.01,VWS V14.01,2013-01-04 21:30:00,
2013-01-04 15:35:00,39.5,28.4,30.32,West,259,1.0,5.0,64,0.00,,---,0.01,VWS V14.01,2013-01-04 21:35:00,
2013-01-04 15:40:00,39.6,28.4,30.32,SW,229,1.0,5.0,64,0.00,,---,0.01,VWS V14.01,2013-01-04 21:40:00,
2013-01-04 15:45:00,39.6,28.4,30.32,SSW,213,3.0,6.0,64,0.00,,---,0.01,VWS V14.01,2013-01-04 21:45:00,
2013-01-04 15:50:00,39.8,28.6,30.31,South,181,4.0,6.0,64,0.00,,---,0.01,VWS V14.01,2013-01-04 21:50:00,
2013-01-04 15:55:00,40.1,28.9,30.31,South,171,2.0,8.0,64,0.00,,---,0.01,VWS V14.01,2013-01-04 21:55:00,
2013-01-04 16:00:00,40.2,29.0,30.31,South,190,1.0,8.0,64,0.00,,---,0.01,VWS V14.01,2013-01-04 22:00:00,
2013-01-04 16:05:00,40.2,29.0,30.31,South,187,3.0,7.0,64,0.00,,---,0.01,VWS V14.01,2013-01-04 22:05:00,
2013-01-04 16:10:00,40.1,28.9,30.31,South,181,1.0,7.0,64,0.00,,---,0.01,VWS V14.01,2013-01-04 22:10:00,
2013-01-04 16:15:00,40.1,28.9,30.31,WSW,258,2.0,7.0,64,0.00,,---,0.01,VWS V14.01,2013-01-04 22:15:00,
2013-01-04 16:20:00,40.1,28.9,30.31,WSW,237,1.0,7.0,64,0.00,,---,0.01,VWS V14.01,2013-01-04 22:20:00,
2013-01-04 16:25:00,39.9,28.3,30.31,SSW,210,2.0,7.0,63,0.00,,---,0.01,VWS V14.01,2013-01-04 22:25:00,
2013-01-04 16:30:00,39.8,28.2,30.31,West,274,3.0,7.0,63,0.00,,---,0.01,VWS V14.01,2013-01-04 22:30:00,
2013-01-04 16:35:00,39.6,28.1,30.31,SW,229,3.0,4.0,63,0.00,,---,0.01,VWS V14.01,2013-01-04 22:35:00,
2013-01-04 16:40:00,39.5,28.0,30.31,SW,222,3.0,5.0,63,0.00,,---,0.01,VWS V14.01,2013-01-04 22:40:00,
2013-01-04 16:45:00,39.3,27.8,30.31,West,259,3.0,5.0,63,0.00,,---,0.01,VWS V14.01,2013-01-04 22:45:00,
2013-01-04 16:50:00,38.9,27.4,30.31,WSW,242,0.0,5.0,63,0.00,,---,0.01,VWS V14.01,2013-01-04 22:50:00,
2013-01-04 16:55:00,38.5,27.4,30.31,West,262,1.0,5.0,64,0.00,,---,0.01,VWS V14.01,2013-01-04 22:55:00,
2013-01-04 17:00:00,38.3,27.2,30.31,West,263,2.0,5.0,64,0.00,,---,0.01,VWS V14.01,2013-01-04 23:00:00,
2013-01-04 17:05:00,38.0,26.9,30.31,SW,228,1.0,3.0,64,0.00,,---,0.01,VWS V14.01,2013-01-04 23:05:00,
2013-01-04 17:10:00,37.8,26.7,30.31,WSW,244,2.0,3.0,64,0.00,,---,0.01,VWS V14.01,2013-01-04 23:10:00,
2013-01-04 17:15:00,37.5,26.5,30.31,WSW,253,0.0,3.0,64,0.00,,---,0.01,VWS V14.01,2013-01-04 23:15:00,
2013-01-04 17:20:00,37.2,26.2,30.31,WSW,253,1.0,3.0,64,0.00,,---,0.01,VWS V14.01,2013-01-04 23:20:00,
2013-01-04 17:25:00,37.0,26.0,30.31,WSW,253,0.0,3.0,64,0.00,,---,0.01,VWS V14.01,2013-01-04 23:25:00,
2013-01-04 17:30:00,36.8,26.1,30.31,WNW,289,3.0,4.0,65,0.00,,---,0.01,VWS V14.01,2013-01-04 23:30:00,
2013-01-04 17:35:00,36.6,26.0,30.31,WNW,289,2.0,3.0,65,0.00,,---,0.01,VWS V14.01,2013-01-04 23:35:00,
2013-01-04 17:40:00,36.5,25.9,30.31,WNW,289,1.0,3.0,65,0.00,,---,0.01,VWS V14.01,2013-01-04 23:40:00,
2013-01-04 17:45:00,36.2,25.6,30.31,WNW,289,2.0,3.0,65,0.00,,---,0.01,VWS V14.01,2013-01-04 23:45:00,
2013-01-04 17:50:00,35.9,25.7,30.31,WNW,289,2.0,4.0,66,0.00,,---,0.01,VWS V14.01,2013-01-04 23:50:00,
2013-01-04 17:55:00,35.8,25.6,30.31,West,261,1.0,4.0,66,0.00,,---,0.01,VWS V14.01,2013-01-04 23:55:00,
2013-01-04 18:00:00,35.6,25.4,30.31,WSW,258,2.0,4.0,66,0.00,,---,0.01,VWS V14.01,2013-01-05 00:00:00,
2013-01-04 18:05:00,35.5,25.3,30.31,West,269,2.0,4.0,66,0.00,,---,0.01,VWS V14.01,2013-01-05 00:05:00,
2013-01-04 18:10:00,35.5,25.6,30.31,West,267,2.0,4.0,67,0.00,,---,0.01,VWS V14.01,2013-01-05 00:10:00,
2013-01-04 18:15:00,35.3,25.5,30.31,West,267,0.0,4.0,67,0.00,,---,0.01,VWS V14.01,2013-01-05 00:15:00,
2013-01-04 18:20:00,35.3,25.5,30.31,West,267,1.0,4.0,67,0.00,,---,0.01,VWS V14.01,2013-01-05 00:20:00,
2013-01-04 18:25:00,35.3,25.5,30.31,West,267,1.0,4.0,67,0.00,,---,0.01,VWS V14.01,2013-01-05 00:25:00,
2013-01-04 18:30:00,35.3,25.5,30.31,West,267,1.0,4.0,67,0.00,,---,0.01,VWS V14.01,2013-01-05 00:30:00,
2013-01-04 18:35:00,35.2,25.4,30.31,West,267,1.0,2.0,67,0.00,,---,0.01,VWS V14.01,2013-01-05 00:35:00,
2013-01-04 18:40:00,35.2,25.4,30.31,West,267,0.0,2.0,67,0.00,,---,0.01,VWS V14.01,2013-01-05 00:40:00,
2013-01-04 18:45:00,35.0,25.5,30.31,West,267,2.0,3.0,68,0.00,,---,0.01,VWS V14.01,2013-01-05 00:45:00,
2013-01-04 18:50:00,35.0,25.5,30.30,West,267,1.0,3.0,68,0.00,,---,0.01,VWS V14.01,2013-01-05 00:50:00,
2013-01-04 18:55:00,35.0,25.5,30.30,West,267,2.0,3.0,68,0.00,,---,0.01,VWS V14.01,2013-01-05 00:55:00,
2013-01-04 19:00:00,35.0,25.5,30.30,West,267,3.0,3.0,68,0.00,,---,0.01,VWS V14.01,2013-01-05 01:00:00,
2013-01-04 19:05:00,35.0,25.5,30.30,West,265,2.0,3.0,68,0.00,,---,0.01,VWS V14.01,2013-01-05 01:05:00,
2013-01-04 19:10:00,35.0,25.5,30.30,West,265,2.0,4.0,68,0.00,,---,0.01,VWS V14.01,2013-01-05 01:10:00,
2013-01-04 19:15:00,35.0,25.5,30.30,WNW,289,3.0,6.0,68,0.00,,---,0.01,VWS V14.01,2013-01-05 01:15:00,
2013-01-04 19:20:00,34.9,25.4,30.30,WNW,285,3.0,6.0,68,0.00,,---,0.01,VWS V14.01,2013-01-05 01:20:00,
2013-01-04 19:25:00,34.9,25.4,30.30,West,277,2.0,6.0,68,0.00,,---,0.01,VWS V14.01,2013-01-05 01:25:00,
2013-01-04 19:30:00,34.9,25.4,30.30,West,276,3.0,6.0,68,0.00,,---,0.01,VWS V14.01,2013-01-05 01:30:00,
2013-01-04 19:35:00,34.9,25.4,30.30,South,191,2.0,4.0,68,0.00,,---,0.01,VWS V14.01,2013-01-05 01:35:00,
2013-01-04 19:40:00,35.0,25.5,30.30,West,277,3.0,5.0,68,0.00,,---,0.01,VWS V14.01,2013-01-05 01:40:00,
2013-01-04 19:45:00,35.0,25.5,30.30,West,271,4.0,5.0,68,0.00,,---,0.01,VWS V14.01,2013-01-05 01:45:00,
2013-01-04 19:50:00,35.2,25.7,30.30,West,270,2.0,5.0,68,0.00,,---,0.01,VWS V14.01,2013-01-05 01:50:00,
2013-01-04 19:55:00,35.2,25.7,30.30,West,275,3.0,5.0,68,0.00,,---,0.01,VWS V14.01,2013-01-05 01:55:00,
2013-01-04 20:00:00,35.2,25.7,30.30,West,267,0.0,6.0,68,0.00,,---,0.01,VWS V14.01,2013-01-05 02:00:00,
2013-01-04 20:05:00,35.2,25.7,30.30,WSW,250,0.0,5.0,68,0.00,,---,0.01,VWS V14.01,2013-01-05 02:05:00,
2013-01-04 20:10:00,35.0,25.5,30.30,West,261,2.0,5.0,68,0.00,,---,0.01,VWS V14.01,2013-01-05 02:10:00,
2013-01-04 20:15:00,35.0,25.5,30.30,West,260,1.0,5.0,68,0.00,,---,0.01,VWS V14.01,2013-01-05 02:15:00,
2013-01-04 20:20:00,34.9,25.1,30.29,West,266,1.0,5.0,67,0.00,,---,0.01,VWS V14.01,2013-01-05 02:20:00,
2013-01-04 20:25:00,34.7,24.9,30.29,WSW,253,2.0,5.0,67,0.00,,---,0.01,VWS V14.01,2013-01-05 02:25:00,
2013-01-04 20:30:00,34.6,24.8,30.29,West,263,1.0,5.0,67,0.00,,---,0.01,VWS V14.01,2013-01-05 02:30:00,
2013-01-04 20:35:00,34.6,24.8,30.29,West,281,1.0,5.0,67,0.00,,---,0.01,VWS V14.01,2013-01-05 02:35:00,
2013-01-04 20:40:00,34.4,24.6,30.29,West,261,2.0,5.0,67,0.00,,---,0.01,VWS V14.01,2013-01-05 02:40:00,
2013-01-04 20:45:00,34.3,24.5,30.29,WSW,253,4.0,5.0,67,0.00,,---,0.01,VWS V14.01,2013-01-05 02:45:00,
2013-01-04 20:50:00,34.1,24.3,30.29,WSW,253,0.0,5.0,67,0.00,,---,0.01,VWS V14.01,2013-01-05 02:50:00,
2013-01-04 20:55:00,33.8,24.0,30.29,WSW,253,0.0,5.0,67,0.00,,---,0.01,VWS V14.01,2013-01-05 02:55:00,
2013-01-04 21:00:00,33.7,23.9,30.29,WSW,253,1.0,5.0,67,0.00,,---,0.01,VWS V14.01,2013-01-05 03:00:00,
2013-01-04 21:05:00,33.5,23.7,30.29,WSW,253,1.0,2.0,67,0.00,,---,0.01,VWS V14.01,2013-01-05 03:05:00,
2013-01-04 21:10:00,33.4,24.0,30.29,WNW,292,2.0,3.0,68,0.00,,---,0.01,VWS V14.01,2013-01-05 03:10:00,
2013-01-04 21:15:00,33.4,24.0,30.29,SW,232,3.0,4.0,68,0.00,,---,0.01,VWS V14.01,2013-01-05 03:15:00,
2013-01-04 21:20:00,33.4,24.0,30.29,WSW,257,3.0,4.0,68,0.00,,---,0.01,VWS V14.01,2013-01-05 03:20:00,
2013-01-04 21:25:00,33.4,24.0,30.29,WSW,257,2.0,4.0,68,0.00,,---,0.01,VWS V14.01,2013-01-05 03:25:00,
2013-01-04 21:30:00,33.2,23.8,30.29,West,270,1.0,4.0,68,0.00,,---,0.01,VWS V14.01,2013-01-05 03:30:00,
2013-01-04 21:35:00,33.1,23.7,30.29,West,269,1.0,4.0,68,0.00,,---,0.01,VWS V14.01,2013-01-05 03:35:00,
2013-01-04 21:40:00,32.9,23.5,30.29,West,275,2.0,4.0,68,0.00,,---,0.01,VWS V14.01,2013-01-05 03:40:00,
2013-01-04 21:45:00,32.9,23.5,30.29,West,275,0.0,4.0,68,0.00,,---,0.01,VWS V14.01,2013-01-05 03:45:00,
2013-01-04 21:50:00,32.9,23.5,30.29,West,275,1.0,4.0,68,0.00,,---,0.01,VWS V14.01,2013-01-05 03:50:00,
2013-01-04 21:55:00,32.8,23.4,30.29,West,274,0.0,4.0,68,0.00,,---,0.01,VWS V14.01,2013-01-05 03:55:00,
2013-01-04 22:00:00,32.7,23.3,30.29,West,274,1.0,4.0,68,0.00,,---,0.01,VWS V14.01,2013-01-05 04:00:00,
2013-01-04 22:05:00,32.5,23.1,30.28,West,271,1.0,4.0,68,0.00,,---,0.01,VWS V14.01,2013-01-05 04:05:00,
2013-01-04 22:10:00,32.4,23.0,30.28,WSW,254,2.0,5.0,68,0.00,,---,0.01,VWS V14.01,2013-01-05 04:10:00,
2013-01-04 22:15:00,32.4,23.0,30.28,WNW,290,2.0,5.0,68,0.00,,---,0.01,VWS V14.01,2013-01-05 04:15:00,
2013-01-04 22:20:00,32.4,23.0,30.28,WSW,252,4.0,5.0,68,0.00,,---,0.01,VWS V14.01,2013-01-05 04:20:00,
2013-01-04 22:25:00,32.4,23.0,30.28,West,273,4.0,5.0,68,0.00,,---,0.01,VWS V14.01,2013-01-05 04:25:00,
2013-01-04 22:30:00,32.4,23.0,30.28,West,261,4.0,5.0,68,0.00,,---,0.01,VWS V14.01,2013-01-05 04:30:00,
2013-01-04 22:35:00,32.5,23.1,30.28,WNW,289,3.0,5.0,68,0.00,,---,0.01,VWS V14.01,2013-01-05 04:35:00,
2013-01-04 22:40:00,32.5,23.1,30.28,SW,234,4.0,6.0,68,0.00,,---,0.01,VWS V14.01,2013-01-05 04:40:00,
2013-01-04 22:45:00,32.7,23.3,30.28,WNW,288,4.0,6.0,68,0.00,,---,0.01,VWS V14.01,2013-01-05 04:45:00,
2013-01-04 22:50:00,32.5,23.1,30.29,WNW,286,2.0,6.0,68,0.00,,---,0.01,VWS V14.01,2013-01-05 04:50:00,
2013-01-04 22:55:00,32.4,23.0,30.29,West,269,2.0,6.0,68,0.00,,---,0.01,VWS V14.01,2013-01-05 04:55:00,
2013-01-04 23:00:00,32.4,23.0,30.29,WNW,294,4.0,6.0,68,0.00,,---,0.01,VWS V14.01,2013-01-05 05:00:00,
2013-01-04 23:01:00,32.4,23.0,30.29,NNW,328,2.0,6.0,68,0.00,,---,0.01,VWS V14.01,2013-01-05 05:01:00,
2013-01-04 23:06:00,32.2,22.8,30.29,SW,232,3.0,5.0,68,0.00,,---,0.01,VWS V14.01,2013-01-05 05:06:00,
2013-01-04 23:11:00,32.1,22.8,30.29,SSW,202,3.0,5.0,68,0.00,,---,0.01,VWS V14.01,2013-01-05 05:11:00,
2013-01-04 23:16:00,32.1,22.8,30.29,West,259,4.0,5.0,68,0.00,,---,0.01,VWS V14.01,2013-01-05 05:16:00,
2013-01-04 23:21:00,32.1,22.8,30.29,West,268,3.0,5.0,68,0.00,,---,0.01,VWS V14.01,2013-01-05 05:21:00,
2013-01-04 23:26:00,31.9,22.5,30.29,WNW,284,1.0,5.0,68,0.00,,---,0.01,VWS V14.01,2013-01-05 05:26:00,
2013-01-04 23:30:00,31.9,22.5,30.28,SSW,192,3.0,5.0,68,0.00,,---,0.01,VWS V14.01,2013-01-05 05:30:00,
2013-01-04 23:31:00,31.9,22.5,30.29,West,267,5.0,5.0,68,0.00,,---,0.01,VWS V14.01,2013-01-05 05:31:00,
2013-01-04 23:36:00,31.9,22.5,30.28,SSW,197,4.0,6.0,68,0.00,,---,0.01,VWS V14.01,2013-01-05 05:36:00,
2013-01-04 23:41:00,31.9,22.5,30.28,SW,228,3.0,7.0,68,0.00,,---,0.01,VWS V14.01,2013-01-05 05:41:00,
2013-01-04 23:46:00,31.9,22.5,30.28,SW,229,2.0,7.0,68,0.00,,---,0.01,VWS V14.01,2013-01-05 05:46:00,
2013-01-04 23:51:00,31.8,22.5,30.28,West,271,3.0,7.0,68,0.00,,---,0.01,VWS V14.01,2013-01-05 05:51:00,
2013-01-04 23:56:00,31.8,22.5,30.28,WSW,238,1.0,7.0,68,0.00,,---,0.01,VWS V14.01,2013-01-05 05:56:00,